createdAt,value
2023-04-07T00:00:28.224Z,15.67
2023-04-07T00:02:54.639Z,15.71
2023-04-07T00:05:21.256Z,15.63
2023-04-07T00:07:55.998Z,15.71
2023-04-07T00:10:24.388Z,15.67
2023-04-07T00:12:50.830Z,15.59
2023-04-07T00:15:17.369Z,15.46
2023-04-07T00:17:43.810Z,15.44
2023-04-07T00:20:10.847Z,15.38
2023-04-07T00:22:37.664Z,15.28
2023-04-07T00:25:04.385Z,15.10
2023-04-07T00:27:30.932Z,14.43
2023-04-07T00:29:57.438Z,14.50
2023-04-07T00:32:23.915Z,14.77
2023-04-07T00:34:50.323Z,14.77
2023-04-07T00:37:17.043Z,14.70
2023-04-07T00:39:43.470Z,14.49
2023-04-07T00:42:10.442Z,14.63
2023-04-07T00:44:36.890Z,14.72
2023-04-07T00:47:03.501Z,14.65
2023-04-07T00:49:29.946Z,14.38
2023-04-07T00:51:57.764Z,14.72
2023-04-07T00:54:24.420Z,14.88
2023-04-07T00:56:51.692Z,14.96
2023-04-07T00:59:18.252Z,14.67
2023-04-07T01:01:51.292Z,14.12
2023-04-07T01:04:26.943Z,14.45
2023-04-07T01:06:55.365Z,14.55
2023-04-07T01:09:26.406Z,14.34
2023-04-07T01:12:06.117Z,14.00
2023-04-07T01:14:36.867Z,14.04
2023-04-07T01:17:04.059Z,14.00
2023-04-07T01:19:48.644Z,14.17
2023-04-07T01:22:22.159Z,14.17
2023-04-07T01:25:23.619Z,14.32
2023-04-07T01:28:18.133Z,14.31
2023-04-07T01:30:45.273Z,14.46
2023-04-07T01:33:12.808Z,14.35
2023-04-07T01:35:39.931Z,14.28
2023-04-07T01:38:06.969Z,13.71
2023-04-07T01:40:34.114Z,13.79
2023-04-07T01:43:01.126Z,14.02
2023-04-07T01:45:28.378Z,14.13
2023-04-07T01:47:55.019Z,13.95
2023-04-07T01:50:22.005Z,13.85
2023-04-07T01:52:48.598Z,13.77
2023-04-07T01:55:15.606Z,13.94
2023-04-07T01:57:42.070Z,14.21
2023-04-07T02:00:08.909Z,14.28
2023-04-07T02:02:37.135Z,14.14
2023-04-07T02:05:06.028Z,14.40
2023-04-07T02:07:39.660Z,14.50
2023-04-07T02:10:08.278Z,14.46
2023-04-07T02:12:35.224Z,14.27
2023-04-07T02:15:01.889Z,14.21
2023-04-07T02:17:29.366Z,14.21
2023-04-07T02:19:57.284Z,14.34
2023-04-07T02:22:23.685Z,14.30
2023-04-07T02:24:50.095Z,14.43
2023-04-07T02:27:17.143Z,14.39
2023-04-07T02:29:43.553Z,14.17
2023-04-07T02:32:10.179Z,13.94
2023-04-07T02:34:36.638Z,13.90
2023-04-07T02:37:03.365Z,13.80
2023-04-07T02:39:29.785Z,13.99
2023-04-07T02:41:56.181Z,14.10
2023-04-07T02:44:22.562Z,13.93
2023-04-07T02:46:48.924Z,14.21
2023-04-07T02:49:15.443Z,14.12
2023-04-07T02:51:41.842Z,13.92
2023-04-07T02:54:08.514Z,13.81
2023-04-07T02:56:34.918Z,13.89
2023-04-07T02:59:01.316Z,13.92
2023-04-07T03:01:27.983Z,14.00
2023-04-07T03:03:54.823Z,14.07
2023-04-07T03:06:21.637Z,13.89
2023-04-07T03:08:48.100Z,13.83
2023-04-07T03:11:14.510Z,13.88
2023-04-07T03:13:41.214Z,13.90
2023-04-07T03:16:07.722Z,13.65
2023-04-07T03:18:34.333Z,13.46
2023-04-07T03:21:00.773Z,13.45
2023-04-07T03:23:29.272Z,13.46
2023-04-07T03:25:55.887Z,13.35
2023-04-07T03:28:22.350Z,13.24
2023-04-07T03:30:48.836Z,13.38
2023-04-07T03:33:15.428Z,13.27
2023-04-07T03:35:42.605Z,13.39
2023-04-07T03:38:09.029Z,13.25
2023-04-07T03:40:35.734Z,13.32
2023-04-07T03:43:02.182Z,13.38
2023-04-07T03:45:28.837Z,13.40
2023-04-07T03:47:55.362Z,13.33
2023-04-07T03:50:21.758Z,13.38
2023-04-07T03:52:48.233Z,13.36
2023-04-07T03:55:14.902Z,13.25
2023-04-07T03:57:41.476Z,13.37
2023-04-07T04:00:09.092Z,13.46
2023-04-07T04:02:35.812Z,13.50
2023-04-07T04:05:02.277Z,13.66
2023-04-07T04:07:28.857Z,13.49
2023-04-07T04:09:55.529Z,13.50
2023-04-07T04:12:22.174Z,13.33
2023-04-07T04:14:48.962Z,13.11
2023-04-07T04:17:15.465Z,13.50
2023-04-07T04:19:41.904Z,13.43
2023-04-07T04:22:08.335Z,13.21
2023-04-07T04:24:34.996Z,13.03
2023-04-07T04:27:01.927Z,12.89
2023-04-07T04:29:28.314Z,12.51
2023-04-07T04:31:54.685Z,12.59
2023-04-07T04:34:21.419Z,12.59
2023-04-07T04:36:49.210Z,12.87
2023-04-07T04:39:15.642Z,13.08
2023-04-07T04:41:42.284Z,13.06
2023-04-07T04:44:08.762Z,13.11
2023-04-07T04:46:35.391Z,13.10
2023-04-07T04:49:02.109Z,13.08
2023-04-07T04:51:28.550Z,12.83
2023-04-07T04:53:55.199Z,13.00
2023-04-07T04:56:21.847Z,13.02
2023-04-07T04:58:48.225Z,12.98
2023-04-07T05:01:14.797Z,12.85
2023-04-07T05:03:41.784Z,12.75
2023-04-07T05:06:08.573Z,13.04
2023-04-07T05:08:34.978Z,12.94
2023-04-07T05:11:01.473Z,13.06
2023-04-07T05:13:30.606Z,13.01
2023-04-07T05:15:57.016Z,13.01
2023-04-07T05:18:23.557Z,13.37
2023-04-07T05:20:50.286Z,13.26
2023-04-07T05:23:16.748Z,13.73
2023-04-07T05:25:43.220Z,13.35
2023-04-07T05:28:09.652Z,13.86
2023-04-07T05:30:35.998Z,13.56
2023-04-07T05:33:02.431Z,13.56
2023-04-07T05:35:28.887Z,13.39
2023-04-07T05:37:55.381Z,13.37
2023-04-07T05:40:21.759Z,13.30
2023-04-07T05:42:48.527Z,12.79
2023-04-07T05:45:14.973Z,13.32
2023-04-07T05:47:41.454Z,13.54
2023-04-07T05:50:08.276Z,13.07
2023-04-07T05:52:34.682Z,13.02
2023-04-07T05:55:01.395Z,13.68
2023-04-07T05:57:28.527Z,14.01
2023-04-07T05:59:55.284Z,14.05
2023-04-07T06:02:21.784Z,13.40
2023-04-07T06:04:48.266Z,13.84
2023-04-07T06:07:14.722Z,13.96
2023-04-07T06:09:42.612Z,13.70
2023-04-07T06:12:09.434Z,14.13
2023-04-07T06:14:36.095Z,14.23
2023-04-07T06:17:02.701Z,14.35
2023-04-07T06:19:29.216Z,14.23
2023-04-07T06:21:55.803Z,14.35
2023-04-07T06:24:25.025Z,14.06
2023-04-07T06:26:55.085Z,14.03
2023-04-07T06:29:21.804Z,13.89
2023-04-07T06:31:48.196Z,14.37
2023-04-07T06:34:14.560Z,14.80
2023-04-07T06:36:41.231Z,14.63
2023-04-07T06:39:07.968Z,14.99
2023-04-07T06:41:34.460Z,15.08
2023-04-07T06:44:00.841Z,15.34
2023-04-07T06:46:27.274Z,15.66
2023-04-07T06:48:53.759Z,15.57
2023-04-07T06:51:20.332Z,16.11
2023-04-07T06:53:48.768Z,16.13
2023-04-07T06:56:15.453Z,15.82
2023-04-07T06:58:41.846Z,16.25
2023-04-07T07:01:08.279Z,16.63
2023-04-07T07:03:34.948Z,16.73
2023-04-07T07:06:01.455Z,16.38
2023-04-07T07:08:28.415Z,16.38
2023-04-07T07:10:55.232Z,16.35
2023-04-07T07:13:23.777Z,16.59
2023-04-07T07:15:50.879Z,16.44
2023-04-07T07:18:17.697Z,16.80
2023-04-07T07:20:44.101Z,17.25
2023-04-07T07:23:10.572Z,16.72
2023-04-07T07:25:36.983Z,17.33
2023-04-07T07:28:03.388Z,17.18
2023-04-07T07:30:29.873Z,17.58
2023-04-07T07:32:56.591Z,17.57
2023-04-07T07:35:25.106Z,17.02
2023-04-07T07:37:52.241Z,17.41
2023-04-07T07:40:18.620Z,16.91
2023-04-07T07:42:46.208Z,17.82
2023-04-07T07:45:13.925Z,17.58
2023-04-07T07:47:41.018Z,18.02
2023-04-07T07:50:07.691Z,18.48
2023-04-07T07:52:34.338Z,18.00
2023-04-07T07:55:00.850Z,18.05
2023-04-07T07:57:27.362Z,18.08
2023-04-07T07:59:53.832Z,17.92
2023-04-07T08:02:20.445Z,17.75
2023-04-07T08:04:47.293Z,17.68
2023-04-07T08:07:13.812Z,17.65
2023-04-07T08:09:40.384Z,18.67
2023-04-07T08:12:06.781Z,19.02
2023-04-07T08:14:33.202Z,19.55
2023-04-07T11:17:28.134Z,16.22
2023-04-07T11:19:54.657Z,17.09
2023-04-07T11:24:50.417Z,18.60
2023-04-07T11:27:16.815Z,18.80
2023-04-07T11:29:44.105Z,19.02
2023-04-07T11:32:10.967Z,19.51
2023-04-07T11:34:37.678Z,18.76
2023-04-07T11:37:24.508Z,18.19
2023-04-07T11:39:54.340Z,18.06
2023-04-07T11:42:34.887Z,17.83
2023-04-07T11:45:01.312Z,17.20
2023-04-07T11:47:37.951Z,17.92
2023-04-07T11:50:05.024Z,17.97
2023-04-07T11:52:42.894Z,16.95
2023-04-07T11:55:24.279Z,17.50
2023-04-07T11:57:51.852Z,18.34
2023-04-07T12:00:19.952Z,18.08
2023-04-07T12:02:46.977Z,18.70
2023-04-07T12:05:13.713Z,19.15
2023-04-07T12:07:41.888Z,19.19
2023-04-07T12:10:22.107Z,19.48
2023-04-07T12:12:49.053Z,19.35
2023-04-07T12:15:15.521Z,18.67
2023-04-07T12:17:47.548Z,18.25
2023-04-07T12:20:14.600Z,17.49
2023-04-07T12:22:41.262Z,18.09
2023-04-07T12:25:07.980Z,18.60
2023-04-07T12:27:42.876Z,18.99
2023-04-07T12:30:10.455Z,18.88
2023-04-07T12:32:37.856Z,18.93
2023-04-07T12:35:05.245Z,18.76
2023-04-07T12:37:32.751Z,18.73
2023-04-07T12:39:59.887Z,18.25
2023-04-07T12:42:26.259Z,18.49
2023-04-07T12:44:53.063Z,18.89
2023-04-07T12:47:19.374Z,19.01
2023-04-07T12:49:46.377Z,19.42
2023-04-07T12:52:13.696Z,20.21
2023-04-07T12:54:40.184Z,20.44
2023-04-07T12:57:06.484Z,20.02
2023-04-07T12:59:32.783Z,19.60
2023-04-07T13:01:59.218Z,19.49
2023-04-07T13:04:26.932Z,18.95
2023-04-07T13:06:53.719Z,18.46
2023-04-07T13:09:20.242Z,18.54
2023-04-07T13:11:46.602Z,17.28
2023-04-07T13:14:12.924Z,17.73
2023-04-07T13:16:39.343Z,18.48
2023-04-07T13:19:05.894Z,17.49
2023-04-07T13:24:01.641Z,16.85
2023-04-07T13:26:28.297Z,17.44
2023-04-07T13:28:54.837Z,18.09
2023-04-07T13:31:22.034Z,17.38
2023-04-07T13:33:48.890Z,17.77
2023-04-07T13:36:15.467Z,18.00
2023-04-07T13:38:42.540Z,18.28
2023-04-07T13:41:09.006Z,17.91
2023-04-07T13:43:35.673Z,18.56
2023-04-07T13:46:02.157Z,18.85
2023-04-07T13:48:28.604Z,18.59
2023-04-07T13:50:55.398Z,18.03
2023-04-07T13:53:21.914Z,17.24
2023-04-07T13:55:48.369Z,16.96
2023-04-07T13:58:14.676Z,18.24
2023-04-07T14:00:41.031Z,18.48
2023-04-07T14:03:08.587Z,18.57
2023-04-07T14:05:35.951Z,18.69
2023-04-07T14:08:02.261Z,18.44
2023-04-07T14:10:29.273Z,18.21
2023-04-07T14:12:56.182Z,18.33
2023-04-07T14:15:22.601Z,17.60
2023-04-07T14:17:48.993Z,17.06
2023-04-07T14:20:15.495Z,17.56
2023-04-07T14:22:42.261Z,18.28
2023-04-07T14:25:08.771Z,17.87
2023-04-07T14:27:35.364Z,16.98
2023-04-07T14:30:02.312Z,17.27
2023-04-07T14:32:30.740Z,17.65
2023-04-07T14:34:59.074Z,17.00
2023-04-07T14:37:26.551Z,17.18
2023-04-07T14:40:02.381Z,16.96
2023-04-07T14:42:29.898Z,16.66
2023-04-07T14:44:56.682Z,18.03
2023-04-07T14:47:23.497Z,17.59
2023-04-07T14:49:51.939Z,18.51
2023-04-07T14:52:20.525Z,18.73
2023-04-07T14:54:47.306Z,18.72
2023-04-07T14:57:13.756Z,18.22
2023-04-07T14:59:40.200Z,17.80
2023-04-07T15:02:07.014Z,17.10
2023-04-07T15:04:33.607Z,17.77
2023-04-07T15:07:00.127Z,17.16
2023-04-07T15:09:26.588Z,17.45
2023-04-07T15:11:53.154Z,17.92
2023-04-07T15:14:19.548Z,17.99
2023-04-07T15:16:48.377Z,17.20
2023-04-07T15:19:15.004Z,17.06
2023-04-07T15:21:41.475Z,17.56
2023-04-07T15:24:08.069Z,17.97
2023-04-07T15:26:34.571Z,18.28
2023-04-07T15:29:01.173Z,17.20
2023-04-07T15:31:28.618Z,17.83
2023-04-07T15:33:55.168Z,18.45
2023-04-07T15:36:21.693Z,17.66
2023-04-07T15:38:48.117Z,18.07
2023-04-07T15:41:16.408Z,17.25
2023-04-07T15:43:42.979Z,17.74
2023-04-07T15:46:09.537Z,17.26
2023-04-07T15:48:35.920Z,16.32
2023-04-07T15:51:02.384Z,17.05
2023-04-07T15:53:29.079Z,17.03
2023-04-07T15:55:56.048Z,17.69
2023-04-07T15:58:22.358Z,17.44
2023-04-07T16:00:48.744Z,17.30
2023-04-07T16:03:15.416Z,17.45
2023-04-07T16:05:42.016Z,16.48
2023-04-07T16:08:08.373Z,16.28
2023-04-07T16:10:34.790Z,17.04
2023-04-07T16:13:01.220Z,17.18
2023-04-07T16:15:39.432Z,16.57
2023-04-07T16:18:07.906Z,16.85
2023-04-07T16:20:34.459Z,16.56
2023-04-07T16:23:01.071Z,16.72
2023-04-07T16:25:27.897Z,16.55
2023-04-07T16:27:54.322Z,16.99
2023-04-07T16:30:21.261Z,16.65
2023-04-07T16:32:47.847Z,16.19
2023-04-07T16:35:15.243Z,16.48
2023-04-07T16:37:42.528Z,16.76
2023-04-07T16:40:10.034Z,17.38
2023-04-07T16:42:36.633Z,17.24
2023-04-07T16:45:03.940Z,16.90
2023-04-07T16:47:31.232Z,16.39
2023-04-07T16:49:58.233Z,16.93
2023-04-07T16:52:25.316Z,16.87
2023-04-07T16:54:51.882Z,16.92
2023-04-07T16:57:18.309Z,16.38
2023-04-07T16:59:44.739Z,16.18
2023-04-07T17:02:13.008Z,16.14
2023-04-07T17:04:40.489Z,15.98
2023-04-07T17:07:07.417Z,16.11
2023-04-07T17:09:33.798Z,15.74
2023-04-07T17:12:01.688Z,15.90
2023-04-07T17:14:28.758Z,16.22
2023-04-07T17:16:55.591Z,16.16
2023-04-07T17:19:22.058Z,15.45
2023-04-07T17:21:48.406Z,15.84
2023-04-07T17:24:15.850Z,16.21
2023-04-07T17:26:42.537Z,15.94
2023-04-07T17:29:08.843Z,15.84
2023-04-07T17:31:36.035Z,15.59
2023-04-07T17:34:03.082Z,15.32
2023-04-07T17:36:32.435Z,15.95
2023-04-07T17:38:59.652Z,16.67
2023-04-07T17:41:32.642Z,15.98
2023-04-07T17:43:59.027Z,16.35
2023-04-07T17:46:25.841Z,15.96
2023-04-07T17:48:52.340Z,15.97
2023-04-07T17:51:19.065Z,15.83
2023-04-07T17:53:45.871Z,15.84
2023-04-07T17:56:12.649Z,15.61
2023-04-07T17:58:39.279Z,15.39
2023-04-07T18:01:08.065Z,15.72
2023-04-07T18:03:34.742Z,15.51
2023-04-07T18:06:01.246Z,16.03
2023-04-07T18:08:29.582Z,15.69
2023-04-07T18:10:56.237Z,15.68
2023-04-07T18:13:22.676Z,15.83
2023-04-07T18:15:49.100Z,15.68
2023-04-07T18:18:15.725Z,16.00
2023-04-07T18:20:42.150Z,15.10
2023-04-07T18:23:09.594Z,14.13
2023-04-07T18:25:36.518Z,14.40
2023-04-07T18:28:03.924Z,13.43
2023-04-07T18:30:30.431Z,14.08
2023-04-07T18:32:56.888Z,14.48
2023-04-07T18:35:23.363Z,14.13
2023-04-07T18:37:50.087Z,14.26
2023-04-07T18:40:16.700Z,14.19
2023-04-07T18:42:43.128Z,13.76
2023-04-07T18:45:09.858Z,13.52
2023-04-07T18:47:36.306Z,13.27
2023-04-07T18:50:03.476Z,13.35
2023-04-07T18:52:30.389Z,13.74
2023-04-07T18:54:57.722Z,13.79
2023-04-07T18:57:24.171Z,13.37
2023-04-07T18:59:50.561Z,13.09
2023-04-07T19:02:17.109Z,13.30
2023-04-07T19:04:44.443Z,13.31
2023-04-07T19:07:10.892Z,12.80
2023-04-07T19:09:37.805Z,13.17
2023-04-07T19:12:04.260Z,12.94
2023-04-07T19:14:31.149Z,13.06
2023-04-07T19:16:57.588Z,13.24
2023-04-07T19:19:24.085Z,13.73
2023-04-07T19:21:50.458Z,13.28
2023-04-07T19:24:16.840Z,13.39
2023-04-07T19:26:43.396Z,13.23
2023-04-07T19:29:12.352Z,13.42
2023-04-07T19:31:39.546Z,12.77
2023-04-07T19:34:06.164Z,12.77
2023-04-07T19:36:32.802Z,12.95
2023-04-07T19:38:59.455Z,13.08
2023-04-07T19:41:26.037Z,12.70
2023-04-07T19:43:53.264Z,13.07
2023-04-07T19:46:19.758Z,12.75
2023-04-07T19:48:46.890Z,12.86
2023-04-07T19:51:13.353Z,12.87
2023-04-07T19:53:39.769Z,12.63
2023-04-07T19:56:06.200Z,12.11
2023-04-07T19:58:34.324Z,12.50
2023-04-07T20:01:00.900Z,12.49
2023-04-07T20:03:27.518Z,12.67
2023-04-07T20:05:54.350Z,12.63
2023-04-07T20:08:20.762Z,12.97
2023-04-07T20:10:47.198Z,12.88
2023-04-07T20:13:13.866Z,12.93
2023-04-07T20:15:40.272Z,12.57
2023-04-07T20:18:06.815Z,12.64
2023-04-07T20:20:33.282Z,12.72
2023-04-07T20:22:59.727Z,12.73
2023-04-07T20:25:26.253Z,12.32
2023-04-07T20:27:52.700Z,12.32
2023-04-07T20:30:19.125Z,12.17
2023-04-07T20:32:47.211Z,12.41
2023-04-07T20:35:13.675Z,12.69
2023-04-07T20:37:40.287Z,12.97
2023-04-07T20:40:07.294Z,11.83
2023-04-07T20:42:34.422Z,11.73
2023-04-07T20:45:03.749Z,11.55
2023-04-07T20:47:31.374Z,11.58
2023-04-07T20:49:58.718Z,11.31
2023-04-07T20:52:27.056Z,11.19
2023-04-07T20:54:53.443Z,11.04
2023-04-07T20:57:20.030Z,11.73
2023-04-07T20:59:46.451Z,11.34
2023-04-07T21:02:13.026Z,11.68
2023-04-07T21:04:39.897Z,11.64
2023-04-07T21:07:06.342Z,11.79
2023-04-07T21:09:32.712Z,11.70
2023-04-07T21:12:01.933Z,11.24
2023-04-07T21:14:28.546Z,11.22
2023-04-07T21:16:54.975Z,10.85
2023-04-07T21:19:22.151Z,11.33
2023-04-07T21:21:48.595Z,11.41
2023-04-07T21:24:14.966Z,11.44
2023-04-07T21:26:41.361Z,11.40
2023-04-07T21:29:07.754Z,11.45
2023-04-07T21:31:34.228Z,11.82
2023-04-07T21:34:00.652Z,11.76
2023-04-07T21:36:27.115Z,11.24
2023-04-07T21:38:53.857Z,10.95
2023-04-07T21:41:21.050Z,11.47
2023-04-07T21:43:47.590Z,11.65
2023-04-07T21:46:14.266Z,11.48
2023-04-07T21:48:40.724Z,11.83
2023-04-07T21:51:08.031Z,11.46
2023-04-07T21:53:37.337Z,11.36
2023-04-07T21:56:03.865Z,11.51
2023-04-07T21:58:30.443Z,11.19
2023-04-07T22:00:56.834Z,11.66
2023-04-07T22:03:23.908Z,11.80
2023-04-07T22:05:50.485Z,11.73
2023-04-07T22:08:17.317Z,11.65
2023-04-07T22:10:43.811Z,11.62
2023-04-07T22:13:10.268Z,11.27
2023-04-07T22:15:36.719Z,11.59
2023-04-07T22:18:03.582Z,11.24
2023-04-07T22:20:30.357Z,11.54
2023-04-07T22:22:57.585Z,11.47
2023-04-07T22:25:24.744Z,11.42
2023-04-07T22:27:54.043Z,11.53
2023-04-07T22:30:20.739Z,11.36
2023-04-07T22:32:48.020Z,11.63
2023-04-07T22:35:14.544Z,11.59
2023-04-07T22:37:40.984Z,11.36
2023-04-07T22:40:08.496Z,11.52
2023-04-07T22:42:34.911Z,11.30
2023-04-07T22:45:01.321Z,11.67
2023-04-07T22:47:27.790Z,11.31
2023-04-07T22:49:54.207Z,11.79
2023-04-07T22:52:20.853Z,11.74
2023-04-07T22:54:47.251Z,11.98
2023-04-07T22:57:13.665Z,11.08
2023-04-07T22:59:40.319Z,11.61
2023-04-07T23:02:06.796Z,11.84
2023-04-07T23:04:33.257Z,11.92
2023-04-07T23:06:59.706Z,11.73
2023-04-07T23:09:26.361Z,11.53
2023-04-07T23:11:52.769Z,11.82
2023-04-07T23:14:19.284Z,11.78
2023-04-07T23:16:46.062Z,12.11
2023-04-07T23:19:15.415Z,11.51
2023-04-07T23:21:44.789Z,11.58
2023-04-07T23:24:11.204Z,11.18
2023-04-07T23:26:37.611Z,11.52
2023-04-07T23:29:04.088Z,11.71
2023-04-07T23:31:30.984Z,11.58
2023-04-07T23:33:58.930Z,11.04
2023-04-07T23:36:27.070Z,11.37
2023-04-07T23:38:55.480Z,11.72
2023-04-07T23:41:22.382Z,11.72
2023-04-07T23:43:49.042Z,11.15
2023-04-07T23:46:15.449Z,11.46
2023-04-07T23:48:42.280Z,12.06
2023-04-07T23:51:08.656Z,11.47
2023-04-07T23:53:35.146Z,11.84
2023-04-07T23:56:01.631Z,11.91
2023-04-07T23:58:28.121Z,11.47
